Time;durP1;ratioP1;P1;durP2;ratioP2;P2;SDS_P1;SDS_P2;PMS_P1;PMS_P2;Temp;Humidity;BMP_temperature;BMP_pressure;BME280_temperature;BME280_humidity;BME280_pressure;Samples;Min_cycle;Max_cycle;Signal;HPM_P1;HPM_P2
2023/03/25 00:02:59;;;;;;;18.20;11.40;;;;;;;12.15;100.00;97666.60;132661;1288;22540;-92
2023/03/25 00:06:02;;;;;;;13.10;10.70;;;;;;;12.03;100.00;97665.12;132753;1288;22570;-93
2023/03/25 00:09:05;;;;;;;11.30;9.40;;;;;;;11.91;100.00;97668.89;133534;1288;22678;-92
2023/03/25 00:12:09;;;;;;;14.40;10.80;;;;;;;11.86;100.00;97664.36;132951;1288;22554;-93
2023/03/25 00:15:12;;;;;;;19.60;12.90;;;;;;;11.80;100.00;97668.10;132327;1288;22582;-93
2023/03/25 00:18:17;;;;;;;22.20;14.80;;;;;;;11.79;100.00;97669.66;132247;1288;25264;-91
2023/03/25 00:21:20;;;;;;;18.20;12.40;;;;;;;11.82;100.00;97670.65;132332;1288;22640;-93
2023/03/25 00:24:23;;;;;;;14.60;11.60;;;;;;;11.79;100.00;97672.49;132555;1286;22577;-91
2023/03/25 00:27:27;;;;;;;17.70;12.50;;;;;;;11.78;100.00;97673.81;132552;1276;25442;-94
2023/03/25 00:30:30;;;;;;;18.80;13.10;;;;;;;11.82;100.00;97670.73;132540;1288;26041;-91
2023/03/25 00:33:34;;;;;;;19.40;14.70;;;;;;;11.86;100.00;97668.39;132487;1288;22554;-93
2023/03/25 00:36:37;;;;;;;18.90;13.90;;;;;;;11.87;100.00;97674.99;132546;1288;22706;-93
2023/03/25 00:39:40;;;;;;;15.40;11.90;;;;;;;11.86;100.00;97670.23;132390;1288;24234;-92
2023/03/25 00:42:49;;;;;;;13.70;11.20;;;;;;;11.84;100.00;97669.24;132679;1288;24217;-92
2023/03/25 00:45:51;;;;;;;10.70;9.30;;;;;;;11.85;100.00;97662.91;134142;1288;22553;-91
2023/03/25 00:48:54;;;;;;;11.10;8.70;;;;;;;11.84;100.00;97659.05;135534;1288;24987;-91
2023/03/25 00:51:57;;;;;;;12.60;9.20;;;;;;;11.83;100.00;97650.06;135414;1288;23978;-90
2023/03/25 00:55:01;;;;;;;11.40;9.30;;;;;;;11.81;100.00;97645.80;134557;1288;22889;-90
2023/03/25 00:58:04;;;;;;;12.80;8.40;;;;;;;11.80;100.00;97653.40;134782;1288;24360;-93
2023/03/25 01:01:09;;;;;;;7.70;6.90;;;;;;;11.81;100.00;97664.55;135027;1288;25579;-92
2023/03/25 01:04:12;;;;;;;9.00;7.40;;;;;;;11.84;100.00;97670.83;134140;1288;25405;-90
2023/03/25 01:07:15;;;;;;;11.80;8.50;;;;;;;11.87;100.00;97672.85;133976;1288;23010;-89
2023/03/25 01:10:18;;;;;;;8.90;7.20;;;;;;;11.86;100.00;97670.48;135804;1288;22225;-91
2023/03/25 01:13:21;;;;;;;11.30;8.20;;;;;;;11.85;100.00;97666.69;135988;1288;22539;-89
2023/03/25 01:16:24;;;;;;;7.00;5.90;;;;;;;11.85;100.00;97671.58;135851;1289;24321;-90
2023/03/25 01:19:27;;;;;;;7.00;6.30;;;;;;;11.87;100.00;97671.36;135784;1288;22556;-93
2023/03/25 01:22:30;;;;;;;6.70;5.60;;;;;;;11.84;100.00;97665.73;135691;1288;22564;-90
2023/03/25 01:25:33;;;;;;;5.90;5.40;;;;;;;11.83;100.00;97660.75;135628;1288;22550;-91
2023/03/25 01:28:36;;;;;;;7.60;6.00;;;;;;;11.80;100.00;97671.34;134024;1288;22505;-91
2023/03/25 01:31:39;;;;;;;9.30;5.90;;;;;;;11.76;100.00;97664.80;133834;1288;22640;-92
2023/03/25 01:34:42;;;;;;;8.10;5.70;;;;;;;11.75;100.00;97659.73;133748;1288;22586;-92
2023/03/25 01:37:46;;;;;;;6.10;5.30;;;;;;;11.73;100.00;97661.23;133636;1288;22887;-92
2023/03/25 01:40:50;;;;;;;7.00;6.00;;;;;;;11.67;100.00;97656.58;133599;1288;24230;-90
2023/03/25 01:43:52;;;;;;;8.50;6.10;;;;;;;11.60;100.00;97661.23;133239;1288;22474;-91
2023/03/25 01:46:55;;;;;;;8.90;7.10;;;;;;;11.50;100.00;97667.30;133510;1288;22617;-91
2023/03/25 01:49:58;;;;;;;6.20;5.40;;;;;;;11.44;100.00;97666.24;133435;1288;23848;-92
2023/03/25 01:53:01;;;;;;;6.20;4.90;;;;;;;11.36;100.00;97656.21;133146;1280;22789;-92
2023/03/25 01:56:04;;;;;;;7.80;4.50;;;;;;;11.28;100.00;97652.41;133454;1288;22622;-92
2023/03/25 01:59:07;;;;;;;7.10;5.40;;;;;;;11.17;100.00;97654.40;133445;1287;25325;-92
2023/03/25 02:02:16;;;;;;;5.40;4.70;;;;;;;11.05;100.00;97646.36;133173;1288;22572;-91
2023/03/25 02:05:19;;;;;;;5.20;4.40;;;;;;;10.94;100.00;97648.21;132928;1288;22507;-92
2023/03/25 02:08:42;;;;;;;5.40;4.60;;;;;;;10.85;100.00;97644.26;132917;1288;26511;-91
2023/03/25 02:12:05;;;;;;;4.20;3.80;;;;;;;10.78;100.00;97635.94;132780;1288;25318;-91
2023/03/25 02:15:08;;;;;;;4.90;3.80;;;;;;;10.73;100.00;97642.30;132792;1265;22753;-91
2023/03/25 02:18:12;;;;;;;4.80;3.90;;;;;;;10.62;100.00;97642.64;132971;1283;22496;-91
2023/03/25 02:21:17;;;;;;;4.20;3.80;;;;;;;10.46;100.00;97636.95;133495;1288;23253;-91
2023/03/25 02:24:20;;;;;;;6.70;3.90;;;;;;;10.33;100.00;97637.02;133665;1288;22775;-91
2023/03/25 02:27:27;;;;;;;16.50;7.20;;;;;;;10.24;100.00;97634.65;133387;1274;22508;-91
2023/03/25 02:30:30;;;;;;;9.70;6.00;;;;;;;10.16;100.00;97638.31;133312;1288;22571;-90
2023/03/25 02:33:32;;;;;;;10.10;5.70;;;;;;;10.11;100.00;97636.57;132894;1288;288672;-91
2023/03/25 02:36:35;;;;;;;21.70;10.40;;;;;;;10.03;100.00;97632.42;133034;1288;24209;-90
2023/03/25 02:39:38;;;;;;;27.20;11.20;;;;;;;10.00;100.00;97624.47;133114;1288;22551;-90
2023/03/25 02:42:41;;;;;;;10.90;6.80;;;;;;;9.95;100.00;97624.34;133202;1288;25459;-91
2023/03/25 02:45:44;;;;;;;12.00;6.30;;;;;;;9.92;100.00;97620.00;133489;1288;22542;-92
2023/03/25 02:48:47;;;;;;;7.90;5.50;;;;;;;9.90;100.00;97617.75;134282;1288;22562;-91
2023/03/25 02:51:50;;;;;;;5.00;4.50;;;;;;;9.88;100.00;97614.20;134511;1288;22552;-88
2023/03/25 02:54:56;;;;;;;5.50;4.00;;;;;;;9.89;100.00;97615.38;135481;1288;22371;-93
2023/03/25 02:58:02;;;;;;;5.10;4.40;;;;;;;9.87;100.00;97616.83;136311;1280;22189;-93
2023/03/25 03:01:05;;;;;;;3.90;3.50;;;;;;;9.92;100.00;97619.69;136287;1289;22273;-91
2023/03/25 03:04:08;;;;;;;4.10;3.70;;;;;;;9.96;100.00;97631.19;134477;1288;23838;-90
2023/03/25 03:07:11;;;;;;;3.90;3.60;;;;;;;10.00;100.00;97632.23;134050;1288;22485;-89
2023/03/25 03:10:18;;;;;;;6.10;4.20;;;;;;;10.02;100.00;97635.48;134018;1288;22491;-89
2023/03/25 03:13:20;;;;;;;5.40;3.50;;;;;;;10.01;100.00;97639.31;133219;1288;22580;-92
2023/03/25 03:16:24;;;;;;;4.30;3.70;;;;;;;9.96;100.00;97645.06;132404;1288;25462;-91
2023/03/25 03:19:27;;;;;;;4.20;3.50;;;;;;;9.97;100.00;97652.36;132637;1288;22576;-91
2023/03/25 03:22:32;;;;;;;5.10;3.10;;;;;;;9.97;100.00;97661.33;132845;1288;22563;-91
2023/03/25 03:25:36;;;;;;;4.00;3.60;;;;;;;9.96;100.00;97666.21;132740;1288;24293;-91
2023/03/25 03:28:39;;;;;;;5.10;3.80;;;;;;;9.93;100.00;97671.09;132668;1288;22519;-91
2023/03/25 03:31:42;;;;;;;3.60;3.30;;;;;;;9.93;100.00;97669.75;132489;1285;23702;-92
2023/03/25 03:34:45;;;;;;;4.00;2.90;;;;;;;9.90;100.00;97672.42;132571;1288;22583;-92
2023/03/25 03:37:49;;;;;;;7.40;3.50;;;;;;;9.88;100.00;97677.17;132412;1288;22548;-93
2023/03/25 03:40:52;;;;;;;2.70;2.50;;;;;;;9.87;100.00;97676.87;132391;1288;25440;-92
2023/03/25 03:43:54;;;;;;;3.10;2.70;;;;;;;9.86;100.00;97676.06;132382;1276;26033;-93
2023/03/25 03:46:58;;;;;;;2.80;2.50;;;;;;;9.81;100.00;97672.54;132527;1288;22547;-92
2023/03/25 03:50:01;;;;;;;6.60;4.20;;;;;;;9.78;100.00;97676.46;132516;1288;24237;-91
2023/03/25 03:53:04;;;;;;;5.70;3.80;;;;;;;9.75;100.00;97678.59;132445;1288;22555;-92
2023/03/25 03:56:07;;;;;;;9.20;4.70;;;;;;;9.75;100.00;97681.33;132441;1286;22632;-92
2023/03/25 03:59:10;;;;;;;5.70;3.70;;;;;;;9.80;100.00;97679.84;132319;1288;22623;-92
2023/03/25 04:02:13;;;;;;;3.90;3.10;;;;;;;9.79;100.00;97684.20;132434;1288;22645;-92
2023/03/25 04:05:16;;;;;;;3.80;3.50;;;;;;;9.75;100.00;97688.16;133108;1288;22561;-92
2023/03/25 04:08:20;;;;;;;3.80;3.20;;;;;;;9.72;100.00;97691.23;133607;1281;22503;-91
2023/03/25 04:11:24;;;;;;;3.90;2.40;;;;;;;9.67;100.00;97692.29;133212;1288;25458;-92
2023/03/25 04:14:26;;;;;;;4.40;2.80;;;;;;;9.64;100.00;97691.52;132439;1285;22758;-89
2023/03/25 04:17:31;;;;;;;5.30;3.50;;;;;;;9.60;100.00;97694.09;132550;1288;22537;-91
2023/03/25 04:20:35;;;;;;;4.90;3.90;;;;;;;9.59;100.00;97699.42;132629;1288;22555;-90
2023/03/25 04:23:40;;;;;;;4.10;3.40;;;;;;;9.57;100.00;97696.61;132388;1288;24231;-90
2023/03/25 04:26:42;;;;;;;3.80;3.50;;;;;;;9.51;100.00;97694.75;132290;1288;22683;-90
2023/03/25 04:29:46;;;;;;;5.20;4.00;;;;;;;9.48;100.00;97697.07;132277;1288;22636;-90
2023/03/25 04:32:50;;;;;;;5.20;4.70;;;;;;;9.45;100.00;97690.89;132353;1288;25644;-91
2023/03/25 04:35:53;;;;;;;6.70;5.40;;;;;;;9.43;100.00;97690.11;132422;1285;25995;-92
2023/03/25 04:38:56;;;;;;;7.50;5.90;;;;;;;9.39;100.00;97690.29;132785;1288;22109;-93
2023/03/25 04:42:00;;;;;;;9.10;5.40;;;;;;;9.38;100.00;97700.62;136367;1288;22202;-93
2023/03/25 04:45:03;;;;;;;6.20;4.60;;;;;;;9.37;100.00;97698.77;136366;1288;22574;-93
2023/03/25 04:48:13;;;;;;;5.40;4.90;;;;;;;9.36;100.00;97700.34;135196;1291;22621;-92
2023/03/25 04:51:17;;;;;;;4.70;4.00;;;;;;;9.36;100.00;97697.89;134114;1292;22572;-92
2023/03/25 04:54:20;;;;;;;5.20;3.90;;;;;;;9.35;100.00;97693.87;133869;1269;22554;-91
2023/03/25 04:57:25;;;;;;;5.20;4.70;;;;;;;9.32;100.00;97686.73;133509;1292;22961;-93
2023/03/25 05:00:28;;;;;;;9.30;5.00;;;;;;;9.31;100.00;97685.16;132616;1286;22580;-92
2023/03/25 05:03:31;;;;;;;5.30;4.40;;;;;;;9.30;100.00;97680.25;132304;1292;22588;-93
2023/03/25 05:06:37;;;;;;;9.70;5.70;;;;;;;9.29;100.00;97684.67;132674;1288;26643;-92
2023/03/25 05:09:40;;;;;;;9.80;6.40;;;;;;;9.30;100.00;97686.48;132670;1288;22638;-89
2023/03/25 05:12:43;;;;;;;9.00;5.90;;;;;;;9.28;100.00;97689.50;132531;1288;22967;-90
2023/03/25 05:15:46;;;;;;;9.40;6.00;;;;;;;9.26;100.00;97692.39;132952;1288;23060;-92
2023/03/25 05:18:51;;;;;;;5.20;4.40;;;;;;;9.22;100.00;97695.29;132976;1265;22551;-90
2023/03/25 05:21:55;;;;;;;5.20;4.40;;;;;;;9.21;100.00;97695.33;132606;1285;22588;-90
2023/03/25 05:24:57;;;;;;;5.60;5.00;;;;;;;9.23;100.00;97707.56;132286;1288;22763;-90
2023/03/25 05:28:04;;;;;;;6.10;4.50;;;;;;;9.30;100.00;97708.04;132062;1288;22560;-91
2023/03/25 05:31:08;;;;;;;5.90;5.40;;;;;;;9.36;100.00;97713.00;133290;1288;22560;-92
2023/03/25 05:34:13;;;;;;;8.40;4.90;;;;;;;9.42;100.00;97720.86;131996;1280;22569;-92
2023/03/25 05:37:16;;;;;;;7.00;5.60;;;;;;;9.46;100.00;97724.56;131984;1288;24340;-91
2023/03/25 05:40:20;;;;;;;7.40;5.20;;;;;;;9.48;100.00;97721.06;132015;1285;22558;-90
2023/03/25 05:43:23;;;;;;;6.80;5.20;;;;;;;9.53;100.00;97723.75;132354;1288;23303;-91
2023/03/25 05:46:27;;;;;;;6.30;5.50;;;;;;;9.60;100.00;97723.56;132437;1288;22557;-88
2023/03/25 05:49:30;;;;;;;6.60;5.20;;;;;;;9.67;100.00;97721.92;132152;1288;24218;-91
2023/03/25 05:52:33;;;;;;;6.10;5.30;;;;;;;9.73;100.00;97730.30;131966;1288;23366;-91
2023/03/25 05:55:36;;;;;;;7.00;5.10;;;;;;;9.79;100.00;97730.33;131918;1288;22561;-92
2023/03/25 05:58:39;;;;;;;10.60;6.40;;;;;;;9.83;100.00;97724.98;131954;1288;24393;-92
2023/03/25 06:01:44;;;;;;;9.40;6.40;;;;;;;9.86;100.00;97729.01;132171;1288;22841;-93
2023/03/25 06:04:49;;;;;;;8.60;5.80;;;;;;;9.89;100.00;97731.96;132011;1286;22671;-91
2023/03/25 06:07:54;;;;;;;6.30;5.00;;;;;;;9.92;100.00;97735.61;132063;1288;24230;-92
2023/03/25 06:10:59;;;;;;;7.30;5.20;;;;;;;9.94;100.00;97738.75;132439;1280;22584;-91
2023/03/25 06:14:02;;;;;;;11.10;6.30;;;;;;;9.98;100.00;97746.14;132209;1288;25337;-90
2023/03/25 06:17:05;;;;;;;7.60;6.00;;;;;;;10.05;100.00;97750.52;132028;1284;22469;-91
2023/03/25 06:20:11;;;;;;;12.80;7.70;;;;;;;10.13;100.00;97749.77;132273;1288;25239;-91
2023/03/25 06:23:14;;;;;;;9.30;6.30;;;;;;;10.22;100.00;97752.57;132531;1288;25385;-92
2023/03/25 06:26:17;;;;;;;8.90;5.90;;;;;;;10.27;100.00;97753.88;133470;1288;22659;-91
2023/03/25 06:29:20;;;;;;;7.40;5.90;;;;;;;10.29;100.00;97746.06;136296;1288;22704;-89
2023/03/25 06:32:24;;;;;;;7.90;5.90;;;;;;;10.34;100.00;97749.17;136334;1288;22632;-90
2023/03/25 06:35:27;;;;;;;8.10;6.50;;;;;;;10.41;100.00;97746.42;134835;1288;24259;-90
2023/03/25 06:38:32;;;;;;;9.00;6.60;;;;;;;10.54;100.00;97753.31;132720;1288;24169;-91
2023/03/25 06:41:36;;;;;;;8.60;5.60;;;;;;;10.63;100.00;97757.41;133250;1274;22511;-89
2023/03/25 06:44:39;;;;;;;8.90;6.10;;;;;;;10.76;100.00;97756.52;133048;1288;26556;-89
2023/03/25 06:47:42;;;;;;;7.00;5.80;;;;;;;10.94;100.00;97758.83;132786;1286;22584;-90
2023/03/25 06:50:45;;;;;;;7.50;4.90;;;;;;;11.07;100.00;97751.42;132100;1288;22579;-86
2023/03/25 06:53:48;;;;;;;5.30;4.80;;;;;;;11.17;100.00;97754.05;131688;1288;24458;-86
2023/03/25 06:56:51;;;;;;;8.40;6.40;;;;;;;11.23;100.00;97756.52;132070;1288;22547;-87
2023/03/25 06:59:54;;;;;;;9.90;5.50;;;;;;;11.38;100.00;97755.35;132153;1288;22553;-86
2023/03/25 07:02:58;;;;;;;6.30;5.10;;;;;;;11.54;100.00;97761.86;131925;1288;22540;-86
2023/03/25 07:06:01;;;;;;;12.60;6.20;;;;;;;11.63;100.00;97758.06;132026;1288;22686;-89
2023/03/25 07:09:03;;;;;;;18.00;11.10;;;;;;;11.69;100.00;97761.27;132116;1288;22733;-90
2023/03/25 07:12:10;;;;;;;14.10;8.40;;;;;;;11.68;100.00;97760.65;132759;1288;23886;-91
2023/03/25 07:15:14;;;;;;;7.20;6.40;;;;;;;11.65;100.00;97756.48;133636;1281;24730;-89
2023/03/25 07:18:17;;;;;;;8.20;5.80;;;;;;;11.68;100.00;97756.62;132244;1285;22630;-87
2023/03/25 07:21:19;;;;;;;8.10;6.30;;;;;;;11.74;100.00;97756.60;133079;1288;22507;-87
2023/03/25 07:24:23;;;;;;;11.20;5.30;;;;;;;11.81;100.00;97767.96;132793;1288;24297;-90
2023/03/25 07:27:26;;;;;;;7.60;5.20;;;;;;;11.91;100.00;97771.19;132391;1288;23921;-85
2023/03/25 07:30:29;;;;;;;9.10;5.20;;;;;;;12.06;100.00;97764.71;132492;1288;22649;-90
2023/03/25 07:33:32;;;;;;;5.70;4.50;;;;;;;12.26;100.00;97762.33;132453;1288;24240;-85
2023/03/25 07:36:34;;;;;;;5.70;4.10;;;;;;;12.47;100.00;97758.65;132191;1288;22599;-86
2023/03/25 07:39:38;;;;;;;8.10;5.20;;;;;;;12.68;100.00;97757.58;132005;1279;24252;-86
2023/03/25 07:42:44;;;;;;;7.00;4.50;;;;;;;12.86;100.00;97759.80;132271;1288;23949;-87
2023/03/25 07:45:47;;;;;;;6.60;4.40;;;;;;;12.99;100.00;97765.38;131724;1288;22552;-88
2023/03/25 07:48:50;;;;;;;10.00;4.70;;;;;;;13.06;100.00;97761.66;133046;1286;22618;-86
2023/03/25 07:51:53;;;;;;;7.10;3.70;;;;;;;13.15;100.00;97756.26;132127;1288;25503;-89
2023/03/25 07:54:55;;;;;;;5.20;4.20;;;;;;;13.16;100.00;97755.00;132220;1265;24192;-86
2023/03/25 07:58:00;;;;;;;9.20;5.30;;;;;;;13.20;100.00;97747.03;132039;1287;22665;-85
2023/03/25 08:01:03;;;;;;;9.00;5.10;;;;;;;13.28;100.00;97746.65;131892;1288;24210;-86
2023/03/25 08:04:06;;;;;;;8.70;4.20;;;;;;;13.44;100.00;97742.50;132020;1288;22577;-83
2023/03/25 08:07:09;;;;;;;6.10;4.60;;;;;;;13.57;100.00;97739.70;133610;1288;24195;-87
2023/03/25 08:10:13;;;;;;;4.00;3.50;;;;;;;13.61;100.00;97745.02;132081;1288;22588;-86
2023/03/25 08:13:16;;;;;;;6.20;3.80;;;;;;;13.65;100.00;97742.77;132383;1288;22546;-84
2023/03/25 08:16:19;;;;;;;5.20;3.40;;;;;;;13.68;100.00;97733.42;132614;1288;22542;-86
2023/03/25 08:19:22;;;;;;;3.90;3.40;;;;;;;13.69;100.00;97730.35;131968;1285;22529;-85
2023/03/25 08:22:26;;;;;;;8.80;3.90;;;;;;;13.73;100.00;97727.99;131946;1288;25449;-87
2023/03/25 08:25:29;;;;;;;6.20;3.70;;;;;;;13.74;100.00;97727.02;131898;1288;23953;-87
2023/03/25 08:28:32;;;;;;;5.10;3.70;;;;;;;13.71;100.00;97727.30;132046;1288;22737;-85
2023/03/25 08:31:37;;;;;;;4.30;3.90;;;;;;;13.70;100.00;97720.60;131974;1288;23354;-87
2023/03/25 08:34:40;;;;;;;5.30;3.60;;;;;;;13.67;100.00;97717.67;131703;1288;25439;-83
2023/03/25 08:37:43;;;;;;;7.30;4.30;;;;;;;13.72;100.00;97718.35;131900;1288;22558;-82
2023/03/25 08:40:45;;;;;;;5.00;3.60;;;;;;;13.82;100.00;97712.81;132090;1288;22591;-89
2023/03/25 08:43:48;;;;;;;7.80;3.90;;;;;;;13.94;100.00;97709.48;132135;1288;25439;-84
2023/03/25 08:46:51;;;;;;;4.30;2.90;;;;;;;14.09;100.00;97711.02;131703;1288;22551;-85
2023/03/25 08:49:54;;;;;;;5.30;3.10;;;;;;;14.20;100.00;97711.77;132069;1288;24240;-86
2023/03/25 08:52:57;;;;;;;5.10;2.90;;;;;;;14.26;100.00;97707.89;131843;1288;26092;-83
2023/03/25 08:56:00;;;;;;;6.40;3.30;;;;;;;14.28;100.00;97708.62;132016;1288;25594;-83
2023/03/25 08:59:03;;;;;;;3.80;3.40;;;;;;;14.27;100.00;97707.83;132493;1288;22610;-83
2023/03/25 09:02:06;;;;;;;3.30;3.00;;;;;;;14.24;100.00;97709.38;132052;1288;24220;-85
2023/03/25 09:05:12;;;;;;;5.90;3.00;;;;;;;14.28;100.00;97708.85;132642;1288;22533;-85
2023/03/25 09:08:18;;;;;;;4.00;3.00;;;;;;;14.35;100.00;97702.41;132267;1288;25680;-82
2023/03/25 09:11:20;;;;;;;5.90;3.40;;;;;;;14.48;100.00;97699.10;133421;1288;22560;-85
2023/03/25 09:14:23;;;;;;;6.30;4.10;;;;;;;14.63;100.00;97698.45;135123;1288;22577;-85
2023/03/25 09:17:27;;;;;;;4.40;3.00;;;;;;;14.76;100.00;97700.63;133224;1288;25305;-86
2023/03/25 09:20:33;;;;;;;4.00;2.50;;;;;;;14.86;100.00;97698.36;131985;1288;22783;-87
2023/03/25 09:23:36;;;;;;;5.50;2.60;;;;;;;14.96;99.81;97690.66;131920;1288;22625;-89
2023/03/25 09:26:39;;;;;;;5.90;2.70;;;;;;;15.00;99.19;97692.29;131942;1288;23885;-89
2023/03/25 09:29:42;;;;;;;4.90;2.30;;;;;;;15.13;98.63;97691.86;131949;1288;24246;-85
2023/03/25 09:32:45;;;;;;;4.10;2.70;;;;;;;15.29;98.11;97691.39;132003;1288;22562;-88
2023/03/25 09:35:48;;;;;;;4.20;3.40;;;;;;;15.39;96.78;97691.67;132121;1288;23892;-88
2023/03/25 09:42:10;;;;;;;4.40;2.50;;;;;;;15.42;90.57;97693.91;132384;1288;22560;-86
2023/03/25 09:45:16;;;;;;;7.90;3.80;;;;;;;15.55;91.85;97689.88;132248;1288;23255;-89
2023/03/25 09:48:31;;;;;;;4.00;2.40;;;;;;;15.74;91.50;97692.52;133251;1288;22547;-88
2023/03/25 09:55:14;;;;;;;5.70;3.00;;;;;;;16.16;86.62;97699.24;132099;1288;25429;-85
2023/03/25 09:58:17;;;;;;;4.80;2.50;;;;;;;16.49;84.04;97699.38;131775;1288;22617;-86
2023/03/25 10:01:20;;;;;;;7.60;2.50;;;;;;;16.77;81.19;97699.08;131770;1288;22575;-86
2023/03/25 10:04:22;;;;;;;10.20;3.00;;;;;;;16.96;80.53;97695.25;131979;1288;22576;-85
2023/03/25 10:07:25;;;;;;;10.00;5.60;;;;;;;17.12;80.55;97691.06;132113;1277;22645;-85
2023/03/25 10:10:30;;;;;;;4.80;3.00;;;;;;;17.23;79.24;97684.44;132458;1288;22543;-82
2023/03/25 10:13:33;;;;;;;8.90;3.60;;;;;;;17.21;77.92;97677.64;133402;1288;24253;-86
2023/03/25 10:16:39;;;;;;;3.00;2.70;;;;;;;17.11;76.66;97675.24;133762;1288;22569;-83
2023/03/25 10:19:53;;;;;;;6.20;3.10;;;;;;;16.97;73.63;97674.59;131849;1288;22849;-87
2023/03/25 10:22:55;;;;;;;5.60;2.60;;;;;;;16.97;75.16;97668.25;132287;1288;24234;-84
2023/03/25 10:25:58;;;;;;;4.80;2.80;;;;;;;17.01;71.72;97663.86;132451;1288;24788;-86
2023/03/25 10:29:05;;;;;;;3.20;2.40;;;;;;;16.85;73.23;97662.39;131970;1286;22545;-85
2023/03/25 10:32:08;;;;;;;5.50;2.70;;;;;;;16.73;74.01;97662.23;131988;1288;24338;-86
2023/03/25 10:35:11;;;;;;;6.80;2.90;;;;;;;16.62;74.20;97656.23;131955;1288;23016;-84
2023/03/25 10:38:17;;;;;;;3.70;3.10;;;;;;;16.56;74.46;97649.65;132017;1288;22564;-82
2023/03/25 10:41:20;;;;;;;4.60;3.00;;;;;;;16.50;74.48;97649.11;131688;1288;25439;-85
2023/03/25 10:44:26;;;;;;;4.30;2.60;;;;;;;16.52;74.75;97645.32;131981;1288;23409;-85
2023/03/25 10:47:29;;;;;;;3.30;2.60;;;;;;;16.55;73.83;97630.84;131970;1288;22539;-84
2023/03/25 10:50:32;;;;;;;3.50;2.20;;;;;;;16.59;73.21;97626.34;131955;1288;22539;-84
2023/03/25 10:53:36;;;;;;;4.00;2.60;;;;;;;16.66;73.20;97619.63;131940;1288;22613;-83
2023/03/25 10:56:38;;;;;;;5.00;2.70;;;;;;;16.70;72.11;97617.36;131961;1288;22550;-84
2023/03/25 10:59:44;;;;;;;3.10;2.10;;;;;;;16.69;70.87;97610.16;131878;1277;22543;-84
2023/03/25 11:02:47;;;;;;;3.10;1.60;;;;;;;16.67;71.49;97607.07;131995;1288;22586;-86
2023/03/25 11:05:50;;;;;;;4.00;2.20;;;;;;;16.71;69.50;97606.38;131995;1288;24297;-88
2023/03/25 11:08:53;;;;;;;3.40;1.80;;;;;;;16.69;69.89;97602.19;131982;1288;22546;-86
2023/03/25 11:11:56;;;;;;;3.90;1.80;;;;;;;16.74;67.92;97596.08;134365;1288;22583;-86
2023/03/25 11:15:00;;;;;;;4.50;2.30;;;;;;;16.81;67.14;97595.57;135445;1288;22578;-84
2023/03/25 11:18:03;;;;;;;8.50;5.90;;;;;;;16.92;66.50;97585.17;132671;1288;22576;-84
2023/03/25 11:21:06;;;;;;;13.10;6.90;;;;;;;17.08;66.88;97577.63;132018;1288;24671;-85
2023/03/25 11:24:09;;;;;;;8.10;5.00;;;;;;;17.22;65.52;97575.45;131974;1288;24263;-85
2023/03/25 11:27:12;;;;;;;8.70;4.60;;;;;;;17.24;65.08;97569.48;133123;1287;22587;-85
2023/03/25 11:30:15;;;;;;;9.50;4.80;;;;;;;17.28;64.36;97564.45;132571;1288;22535;-85
2023/03/25 11:33:18;;;;;;;4.30;2.70;;;;;;;17.32;63.54;97554.59;132105;1288;24288;-85
2023/03/25 11:36:21;;;;;;;5.30;3.70;;;;;;;17.27;62.04;97556.50;131929;1288;24274;-85
2023/03/25 11:39:24;;;;;;;10.10;5.30;;;;;;;17.17;63.26;97558.77;131891;1288;24260;-85
2023/03/25 11:42:27;;;;;;;8.90;4.70;;;;;;;17.00;63.89;97558.61;131886;1288;22563;-85
2023/03/25 11:45:30;;;;;;;4.70;2.40;;;;;;;16.86;64.06;97557.61;131865;1277;23917;-85
2023/03/25 11:48:33;;;;;;;3.70;2.30;;;;;;;16.76;64.85;97557.77;131837;1287;24318;-86
2023/03/25 11:51:36;;;;;;;4.50;2.30;;;;;;;16.65;64.64;97563.33;132021;1288;22539;-85
2023/03/25 11:54:39;;;;;;;3.20;2.30;;;;;;;16.54;65.19;97567.52;131998;1288;23482;-84
2023/03/25 11:57:42;;;;;;;8.70;3.60;;;;;;;16.25;62.94;97577.13;131656;1288;22627;-85
2023/03/25 12:00:44;;;;;;;8.80;5.30;;;;;;;15.95;64.58;97581.85;131933;1287;22768;-84
2023/03/25 12:03:47;;;;;;;10.00;4.30;;;;;;;15.86;67.28;97577.23;131679;1288;22655;-84
2023/03/25 12:06:50;;;;;;;3.90;2.90;;;;;;;15.85;66.43;97572.95;131924;1288;24301;-84
2023/03/25 12:09:53;;;;;;;4.60;2.50;;;;;;;15.97;67.82;97576.02;132100;1288;25437;-85
2023/03/25 12:12:56;;;;;;;4.50;2.60;;;;;;;16.10;69.20;97567.35;134379;1288;24234;-85
2023/03/25 12:15:59;;;;;;;3.60;1.90;;;;;;;16.18;66.13;97564.06;135209;1288;22527;-86
2023/03/25 12:19:02;;;;;;;4.90;1.30;;;;;;;16.15;62.86;97559.76;132747;1288;25512;-85
2023/03/25 12:22:05;;;;;;;2.10;1.30;;;;;;;16.10;62.01;97559.80;132119;1288;23006;-85
2023/03/25 12:25:08;;;;;;;3.10;1.40;;;;;;;16.08;62.15;97555.63;132031;1288;24224;-86
2023/03/25 12:28:11;;;;;;;1.10;0.70;;;;;;;16.15;64.86;97547.82;132087;1288;25263;-86
2023/03/25 12:31:14;;;;;;;2.00;1.10;;;;;;;16.29;63.01;97541.09;131902;1288;25305;-85
2023/03/25 12:34:17;;;;;;;1.60;1.20;;;;;;;16.38;62.48;97547.86;131919;1288;22698;-86
2023/03/25 12:37:19;;;;;;;3.30;1.60;;;;;;;16.39;61.17;97545.60;131982;1288;22622;-84
2023/03/25 12:40:22;;;;;;;2.20;1.50;;;;;;;16.32;62.06;97543.83;131977;1288;25311;-86
2023/03/25 12:43:25;;;;;;;3.30;2.00;;;;;;;16.29;62.54;97542.20;132082;1288;22484;-86
2023/03/25 12:46:28;;;;;;;4.20;1.40;;;;;;;16.18;61.38;97536.55;132890;1288;22551;-86
2023/03/25 12:49:31;;;;;;;1.60;1.30;;;;;;;16.06;62.70;97530.47;132369;1288;25442;-86
2023/03/25 12:52:34;;;;;;;2.40;1.20;;;;;;;15.97;62.15;97529.88;131925;1288;25440;-86
2023/03/25 12:55:37;;;;;;;1.30;1.10;;;;;;;15.87;61.62;97528.89;132159;1288;22680;-86
2023/03/25 12:58:39;;;;;;;2.30;1.60;;;;;;;15.78;61.90;97528.08;132185;1288;22628;-88
2023/03/25 13:01:42;;;;;;;2.60;1.90;;;;;;;15.73;61.67;97521.61;132115;1288;25445;-86
2023/03/25 13:04:47;;;;;;;3.10;2.40;;;;;;;15.63;60.32;97523.57;131975;1288;24400;-87
2023/03/25 13:07:50;;;;;;;2.20;1.60;;;;;;;15.54;60.56;97519.54;132032;1288;22540;-85
2023/03/25 13:10:53;;;;;;;2.30;1.20;;;;;;;15.45;59.82;97522.93;132130;1286;22532;-86
2023/03/25 13:13:56;;;;;;;2.40;1.80;;;;;;;15.35;60.72;97520.28;134813;1288;22865;-86
2023/03/25 13:17:00;;;;;;;1.90;1.20;;;;;;;15.35;61.70;97519.98;135204;1288;22562;-84
2023/03/25 13:20:04;;;;;;;3.10;1.30;;;;;;;15.40;61.61;97517.14;132266;1281;22539;-85
2023/03/25 13:23:07;;;;;;;3.30;1.80;;;;;;;15.41;61.81;97520.18;132280;1282;22592;-89
2023/03/25 13:26:10;;;;;;;3.80;1.70;;;;;;;15.47;62.89;97521.39;132271;1282;22543;-88
2023/03/25 13:29:13;;;;;;;2.40;1.80;;;;;;;15.60;65.65;97516.11;132053;1284;22540;-88
2023/03/25 13:32:16;;;;;;;3.20;1.50;;;;;;;15.90;66.00;97514.94;132037;1283;24791;-86
2023/03/25 13:35:19;;;;;;;2.00;1.20;;;;;;;16.31;63.68;97514.48;132033;1283;22552;-86
2023/03/25 13:38:22;;;;;;;2.30;1.40;;;;;;;16.66;61.53;97507.46;132209;1281;22543;-85
2023/03/25 13:41:25;;;;;;;2.10;1.60;;;;;;;16.82;60.35;97500.45;132045;1284;25419;-89
2023/03/25 13:44:27;;;;;;;1.40;1.10;;;;;;;16.84;60.82;97501.71;132007;1282;25369;-88
2023/03/25 13:47:31;;;;;;;1.70;1.10;;;;;;;16.90;60.17;97502.61;131934;1289;22561;-88
2023/03/25 13:50:34;;;;;;;1.30;1.20;;;;;;;16.85;57.47;97507.16;131931;1289;26649;-88
2023/03/25 13:53:37;;;;;;;1.50;0.90;;;;;;;16.79;56.60;97510.74;131950;1289;22634;-84
2023/03/25 13:56:40;;;;;;;1.20;0.90;;;;;;;16.75;56.19;97508.75;131889;1289;22760;-87
2023/03/25 13:59:44;;;;;;;0.80;0.70;;;;;;;16.79;54.73;97506.84;131916;1289;22647;-87
2023/03/25 14:02:47;;;;;;;1.40;1.10;;;;;;;16.71;52.35;97513.09;131965;1289;22534;-87
2023/03/25 14:05:51;;;;;;;6.80;0.80;;;;;;;16.69;52.35;97512.59;131946;1286;22543;-87
2023/03/25 14:08:54;;;;;;;0.90;0.70;;;;;;;16.72;52.53;97518.05;132008;1289;22555;-88
2023/03/25 14:11:57;;;;;;;1.90;0.70;;;;;;;16.70;51.70;97515.84;132179;1289;22543;-88
2023/03/25 14:15:00;;;;;;;1.80;1.20;;;;;;;16.78;52.23;97512.05;133884;1289;22592;-87